Time,TemperatureF,DewpointF,PressureIn,WindDirection,WindDirectionDegrees,WindSpeedMPH,WindSpeedGustMPH,Humidity,HourlyPrecipIn,Conditions,Clouds,dailyrainin,SoftwareType,DateUTC
2013-04-18 00:14:00,64.2,60.9,29.76,SSE,157,4.2,-999.0,89,-99.99,,,0.00,Acu-Link.com,2013-04-18 04:14:00,
2013-04-18 00:29:00,64.0,61.0,29.75,South,180,3.7,-999.0,90,-99.99,,,0.00,Acu-Link.com,2013-04-18 04:29:00,
2013-04-18 00:44:00,63.7,60.7,29.75,WSW,247,2.7,-999.0,90,-99.99,,,0.00,Acu-Link.com,2013-04-18 04:44:00,
2013-04-18 01:00:00,64.2,60.2,29.74,SSE,157,4.2,-999.0,87,-99.99,,,0.00,Acu-Link.com,2013-04-18 05:00:00,
2013-04-18 01:15:00,63.9,60.0,29.74,SSE,157,4.2,-999.0,87,-99.99,,,0.00,Acu-Link.com,2013-04-18 05:15:00,
2013-04-18 01:30:00,63.5,59.9,29.74,SSE,157,3.7,-999.0,88,-99.99,,,0.00,Acu-Link.com,2013-04-18 05:30:00,
2013-04-18 01:45:00,63.3,59.7,29.74,SSE,157,4.7,-999.0,88,-99.99,,,0.00,Acu-Link.com,2013-04-18 05:45:00,
2013-04-18 02:00:00,63.1,59.2,29.72,South,180,6.8,-999.0,87,-99.99,,,0.00,Acu-Link.com,2013-04-18 06:00:00,
2013-04-18 02:16:00,63.3,59.0,29.73,SSE,157,3.7,-999.0,86,-99.99,,,0.00,Acu-Link.com,2013-04-18 06:16:00,
2013-04-18 02:46:00,63.0,58.7,29.71,SSW,202,4.7,-999.0,86,-99.99,,,0.00,Acu-Link.com,2013-04-18 06:46:00,
2013-04-18 03:01:00,62.6,58.3,29.70,South,180,3.7,-999.0,86,-99.99,,,0.00,Acu-Link.com,2013-04-18 07:01:00,
2013-04-18 03:17:00,62.6,58.3,29.70,East,90,4.7,-999.0,86,-99.99,,,0.00,Acu-Link.com,2013-04-18 07:17:00,
2013-04-18 03:32:00,62.4,58.2,29.70,SSW,202,4.2,-999.0,86,-99.99,,,0.00,Acu-Link.com,2013-04-18 07:32:00,
2013-04-18 03:47:00,62.2,58.3,29.70,SSE,157,3.7,-999.0,87,-99.99,,,0.00,Acu-Link.com,2013-04-18 07:47:00,
2013-04-18 04:35:00,62.2,58.3,29.70,South,180,3.7,-999.0,87,-99.99,,,0.00,Acu-Link.com,2013-04-18 08:35:00,
2013-04-18 04:53:00,62.1,58.2,29.69,SSE,157,4.7,-999.0,87,-99.99,,,0.00,Acu-Link.com,2013-04-18 08:53:00,
2013-04-18 05:08:00,62.4,58.5,29.69,ESE,112,7.3,-999.0,87,-99.99,,,0.00,Acu-Link.com,2013-04-18 09:08:00,
2013-04-18 05:23:00,62.4,58.5,29.70,ESE,112,5.3,-999.0,87,-99.99,,,0.00,Acu-Link.com,2013-04-18 09:23:00,
2013-04-18 05:39:00,62.6,58.3,29.70,SE,135,4.7,-999.0,86,-99.99,,,0.00,Acu-Link.com,2013-04-18 09:39:00,
2013-04-18 05:54:00,63.3,58.7,29.70,SSW,202,5.3,-999.0,85,-99.99,,,0.00,Acu-Link.com,2013-04-18 09:54:00,
2013-04-18 06:09:00,64.0,59.4,29.71,South,180,5.3,-999.0,85,-99.99,,,0.00,Acu-Link.com,2013-04-18 10:09:00,
2013-04-18 06:24:00,64.4,59.8,29.71,SSE,157,4.7,-999.0,85,-99.99,,,0.00,Acu-Link.com,2013-04-18 10:24:00,
2013-04-18 06:39:00,64.2,59.6,29.71,SSE,157,6.8,-999.0,85,-99.99,,,0.00,Acu-Link.com,2013-04-18 10:39:00,
2013-04-18 06:54:00,64.0,59.1,29.70,South,180,3.7,-999.0,84,-99.99,,,0.00,Acu-Link.com,2013-04-18 10:54:00,
2013-04-18 07:09:00,63.7,59.1,29.71,South,180,4.7,-999.0,85,-99.99,,,0.00,Acu-Link.com,2013-04-18 11:09:00,
2013-04-18 07:24:00,64.2,59.3,29.70,SW,225,7.8,-999.0,84,-99.99,,,0.00,Acu-Link.com,2013-04-18 11:24:00,
2013-04-18 07:39:00,64.8,59.5,29.72,SSW,202,6.3,-999.0,83,-99.99,,,0.00,Acu-Link.com,2013-04-18 11:39:00,
2013-04-18 07:55:00,65.5,59.9,29.73,SE,135,6.3,-999.0,82,-99.99,,,0.00,Acu-Link.com,2013-04-18 11:55:00,
2013-04-18 08:10:00,65.8,60.1,29.73,South,180,10.9,-999.0,82,-99.99,,,0.00,Acu-Link.com,2013-04-18 12:10:00,
2013-04-18 08:25:00,66.7,60.7,29.73,SSE,157,7.3,-999.0,81,-99.99,,,0.00,Acu-Link.com,2013-04-18 12:25:00,
2013-04-18 08:40:00,67.6,61.6,29.73,SW,225,3.7,-999.0,81,-99.99,,,0.00,Acu-Link.com,2013-04-18 12:40:00,
2013-04-18 08:55:00,68.5,61.7,29.73,South,180,6.8,-999.0,79,-99.99,,,0.00,Acu-Link.com,2013-04-18 12:55:00,
2013-04-18 09:10:00,69.3,61.8,29.73,South,180,8.3,-999.0,77,-99.99,,,0.00,Acu-Link.com,2013-04-18 13:10:00,
2013-04-18 09:25:00,69.8,61.9,29.73,SSW,202,8.3,-999.0,76,-99.99,,,0.00,Acu-Link.com,2013-04-18 13:25:00,
2013-04-18 09:56:00,71.1,62.4,29.72,SW,225,5.8,-999.0,74,-99.99,,,0.00,Acu-Link.com,2013-04-18 13:56:00,
2013-04-18 10:11:00,71.6,62.5,29.72,ESE,112,7.3,-999.0,73,-99.99,,,0.00,Acu-Link.com,2013-04-18 14:11:00,
2013-04-18 10:26:00,72.3,62.8,29.72,SW,225,3.7,-999.0,72,-99.99,,,0.00,Acu-Link.com,2013-04-18 14:26:00,
2013-04-18 10:41:00,72.5,62.5,29.71,SW,225,9.9,-999.0,71,-99.99,,,0.00,Acu-Link.com,2013-04-18 14:41:00,
2013-04-18 10:57:00,74.1,63.7,29.71,SSW,202,5.8,-999.0,70,-99.99,,,0.00,Acu-Link.com,2013-04-18 14:57:00,
2013-04-18 11:12:00,75.4,62.8,29.70,SSW,202,6.3,-999.0,65,-99.99,,,0.00,Acu-Link.com,2013-04-18 15:12:00,
2013-04-18 11:51:00,76.8,61.8,29.72,South,180,12.5,-999.0,60,-99.99,,,0.00,Acu-Link.com,2013-04-18 15:51:00,
2013-04-18 12:07:00,78.1,63.5,29.69,SE,135,19.1,-999.0,61,-99.99,,,0.00,Acu-Link.com,2013-04-18 16:07:00,
2013-04-18 12:22:00,78.1,62.6,29.68,SSW,202,12.5,-999.0,59,-99.99,,,0.00,Acu-Link.com,2013-04-18 16:22:00,
2013-04-18 12:37:00,78.4,61.9,29.67,South,180,11.9,-999.0,57,-99.99,,,0.00,Acu-Link.com,2013-04-18 16:37:00,
2013-04-18 12:52:00,79.5,62.4,29.66,SSE,157,8.9,-999.0,56,-99.99,,,0.00,Acu-Link.com,2013-04-18 16:52:00,
2013-04-18 13:07:00,78.8,61.2,29.66,SSW,202,11.9,-999.0,55,-99.99,,,0.00,Acu-Link.com,2013-04-18 17:07:00,
2013-04-18 13:22:00,79.5,61.4,29.66,SW,225,6.8,-999.0,54,-99.99,,,0.00,Acu-Link.com,2013-04-18 17:22:00,
2013-04-18 13:37:00,80.4,61.7,29.65,ESE,112,14.0,-999.0,53,-99.99,,,0.00,Acu-Link.com,2013-04-18 17:37:00,
2013-04-18 13:52:00,80.2,61.5,29.65,WSW,247,13.5,-999.0,53,-99.99,,,0.00,Acu-Link.com,2013-04-18 17:52:00,
2013-04-18 14:07:00,80.4,60.6,29.65,SE,135,11.9,-999.0,51,-99.99,,,0.00,Acu-Link.com,2013-04-18 18:07:00,
2013-04-18 14:22:00,81.0,61.1,29.64,South,180,15.5,-999.0,51,-99.99,,,0.00,Acu-Link.com,2013-04-18 18:22:00,
2013-04-18 14:37:00,79.5,59.2,29.64,SSE,157,5.3,-999.0,50,-99.99,,,0.00,Acu-Link.com,2013-04-18 18:37:00,
2013-04-18 14:52:00,81.1,58.9,29.63,ESE,112,6.8,-999.0,47,-99.99,,,0.00,Acu-Link.com,2013-04-18 18:52:00,
2013-04-18 15:07:00,80.2,59.9,29.63,South,180,6.8,-999.0,50,-99.99,,,0.00,Acu-Link.com,2013-04-18 19:07:00,
2013-04-18 15:22:00,82.6,60.9,29.62,SSE,157,9.9,-999.0,48,-99.99,,,0.00,Acu-Link.com,2013-04-18 19:22:00,
2013-04-18 15:38:00,81.7,58.3,29.61,West,270,9.4,-999.0,45,-99.99,,,0.00,Acu-Link.com,2013-04-18 19:38:00,
2013-04-18 15:53:00,81.3,57.3,29.61,SW,225,7.3,-999.0,44,-99.99,,,0.00,Acu-Link.com,2013-04-18 19:53:00,
2013-04-18 16:08:00,81.9,56.5,29.59,SSW,202,13.0,-999.0,42,-99.99,,,0.00,Acu-Link.com,2013-04-18 20:08:00,
2013-04-18 16:23:00,81.7,56.3,29.59,SE,135,6.3,-999.0,42,-99.99,,,0.00,Acu-Link.com,2013-04-18 20:23:00,
2013-04-18 16:38:00,80.6,54.0,29.58,SE,135,10.9,-999.0,40,-99.99,,,0.00,Acu-Link.com,2013-04-18 20:38:00,
2013-04-18 16:54:00,80.2,54.3,29.58,South,180,13.0,-999.0,41,-99.99,,,0.00,Acu-Link.com,2013-04-18 20:54:00,
2013-04-18 17:09:00,80.1,55.6,29.57,ESE,112,13.0,-999.0,43,-99.99,,,0.00,Acu-Link.com,2013-04-18 21:09:00,
2013-04-18 17:24:00,80.1,55.6,29.56,South,180,4.2,-999.0,43,-99.99,,,0.00,Acu-Link.com,2013-04-18 21:24:00,
2013-04-18 17:39:00,79.7,55.2,29.55,SSE,157,6.3,-999.0,43,-99.99,,,0.00,Acu-Link.com,2013-04-18 21:39:00,
2013-04-18 17:55:00,81.0,55.7,29.55,SSE,157,9.9,-999.0,42,-99.99,,,0.00,Acu-Link.com,2013-04-18 21:55:00,
2013-04-18 18:10:00,80.1,55.6,29.54,SSW,202,5.8,-999.0,43,-99.99,,,0.00,Acu-Link.com,2013-04-18 22:10:00,
2013-04-18 18:25:00,79.2,56.0,29.54,SSE,157,6.3,-999.0,45,-99.99,,,0.00,Acu-Link.com,2013-04-18 22:25:00,
2013-04-18 18:40:00,79.0,54.6,29.54,ESE,112,14.0,-999.0,43,-99.99,,,0.00,Acu-Link.com,2013-04-18 22:40:00,
2013-04-18 18:55:00,78.1,54.4,29.53,SW,225,8.9,-999.0,44,-99.99,,,0.00,Acu-Link.com,2013-04-18 22:55:00,
2013-04-18 19:10:00,77.9,54.2,29.52,SSW,202,6.3,-999.0,44,-99.99,,,0.00,Acu-Link.com,2013-04-18 23:10:00,
2013-04-18 19:26:00,77.4,54.4,29.53,SE,135,5.3,-999.0,45,-99.99,,,0.00,Acu-Link.com,2013-04-18 23:26:00,
2013-04-18 19:41:00,76.8,54.4,29.51,SSW,202,10.9,-999.0,46,-99.99,,,0.00,Acu-Link.com,2013-04-18 23:41:00,
2013-04-18 19:56:00,75.9,54.8,29.51,SW,225,9.4,-999.0,48,-99.99,,,0.00,Acu-Link.com,2013-04-18 23:56:00,
2013-04-18 20:11:00,75.7,54.6,29.51,SSW,202,8.9,-999.0,48,-99.99,,,0.00,Acu-Link.com,2013-04-19 00:11:00,
2013-04-18 20:26:00,75.2,54.7,29.52,South,180,5.8,-999.0,49,-99.99,,,0.00,Acu-Link.com,2013-04-19 00:26:00,
2013-04-18 20:42:00,74.5,54.6,29.51,South,180,4.7,-999.0,50,-99.99,,,0.00,Acu-Link.com,2013-04-19 00:42:00,
2013-04-18 20:57:00,74.1,54.8,29.50,SSE,157,6.3,-999.0,51,-99.99,,,0.00,Acu-Link.com,2013-04-19 00:57:00,
2013-04-18 21:12:00,73.8,55.1,29.50,SSE,157,4.2,-999.0,52,-99.99,,,0.00,Acu-Link.com,2013-04-19 01:12:00,
2013-04-18 21:27:00,73.4,55.2,29.51,ESE,112,5.8,-999.0,53,-99.99,,,0.00,Acu-Link.com,2013-04-19 01:27:00,
2013-04-18 21:42:00,73.0,55.4,29.51,West,270,5.8,-999.0,54,-99.99,,,0.00,Acu-Link.com,2013-04-19 01:42:00,
2013-04-18 21:57:00,73.2,55.0,29.50,South,180,7.3,-999.0,53,-99.99,,,0.00,Acu-Link.com,2013-04-19 01:57:00,
2013-04-18 22:13:00,73.0,54.8,29.50,SSW,202,7.3,-999.0,53,-99.99,,,0.00,Acu-Link.com,2013-04-19 02:13:00,
2013-04-18 22:28:00,72.7,54.6,29.49,SSE,157,8.3,-999.0,53,-99.99,,,0.00,Acu-Link.com,2013-04-19 02:28:00,
2013-04-18 22:43:00,72.7,55.1,29.48,SSE,157,4.7,-999.0,54,-99.99,,,0.00,Acu-Link.com,2013-04-19 02:43:00,
2013-04-18 22:58:00,72.5,54.9,29.47,South,180,5.8,-999.0,54,-99.99,,,0.00,Acu-Link.com,2013-04-19 02:58:00,
2013-04-18 23:13:00,72.5,54.9,29.45,SSW,202,6.8,-999.0,54,-99.99,,,0.00,Acu-Link.com,2013-04-19 03:13:00,
2013-04-18 23:28:00,72.5,55.4,29.44,SSE,157,5.3,-999.0,55,-99.99,,,0.00,Acu-Link.com,2013-04-19 03:28:00,
2013-04-18 23:43:00,72.3,55.2,29.43,South,180,8.3,-999.0,55,-99.99,,,0.00,Acu-Link.com,2013-04-19 03:43:00,
2013-04-18 23:58:00,72.3,55.2,29.44,South,180,6.3,-999.0,55,-99.99,,,0.00,Acu-Link.com,2013-04-19 03:58:00,